Time;durP1;ratioP1;P1;durP2;ratioP2;P2;SDS_P1;SDS_P2;PMS_P1;PMS_P2;Temp;Humidity;BMP_temperature;BMP_pressure;BME280_temperature;BME280_humidity;BME280_pressure;Samples;Min_cycle;Max_cycle;Signal;HPM_P1;HPM_P2
2021/11/26 00:01:56;;;;;;;;;;;6.70;55.90;;;;;;5055425;28;19927;-65
2021/11/26 00:04:22;;;;;;;;;;;6.70;56.00;;;;;;5055540;28;19919;-65
2021/11/26 00:06:48;;;;;;;;;;;6.80;56.00;;;;;;5055470;28;19909;-64
2021/11/26 00:09:14;;;;;;;;;;;6.80;56.00;;;;;;5055366;28;20330;-64
2021/11/26 00:11:39;;;;;;;;;;;6.80;56.00;;;;;;5056057;28;19919;-64
2021/11/26 00:14:24;;;;;;;;;;;6.80;56.00;;;;;;5060952;28;20271;-65
2021/11/26 00:16:56;;;;;;;;;;;6.80;56.00;;;;;;5074405;28;20312;-65
2021/11/26 00:19:22;;;;;;;;;;;6.80;56.00;;;;;;5074328;28;19905;-65
2021/11/26 00:21:47;;;;;;;;;;;6.80;56.00;;;;;;5070287;28;19966;-65
2021/11/26 00:24:13;;;;;;;;;;;6.80;55.90;;;;;;5042149;28;19944;-65
2021/11/26 00:26:39;;;;;;;;;;;6.80;55.90;;;;;;5040556;28;19928;-65
2021/11/26 00:29:05;;;;;;;;;;;6.80;55.90;;;;;;5063210;28;19947;-65
2021/11/26 00:31:31;;;;;;;;;;;6.80;55.80;;;;;;5054821;28;19908;-65
2021/11/26 00:33:56;;;;;;;;;;;6.80;55.80;;;;;;5069651;28;19912;-65
2021/11/26 00:36:22;;;;;;;;;;;6.80;55.80;;;;;;5065210;28;19915;-65
2021/11/26 00:38:47;;;;;;;;;;;6.80;55.70;;;;;;5054746;28;19909;-65
2021/11/26 00:41:13;;;;;;;;;;;6.80;55.80;;;;;;5056219;28;19917;-64
2021/11/26 00:43:39;;;;;;;;;;;6.80;55.70;;;;;;5056052;28;19931;-65
2021/11/26 00:46:04;;;;;;;;;;;6.80;55.70;;;;;;5073694;28;20003;-64
2021/11/26 00:48:30;;;;;;;;;;;6.80;55.70;;;;;;5073872;28;19966;-65
2021/11/26 00:50:55;;;;;;;;;;;6.80;55.60;;;;;;5073751;28;19915;-65
2021/11/26 00:53:21;;;;;;;;;;;6.80;55.60;;;;;;5060775;28;19962;-65
2021/11/26 00:55:46;;;;;;;;;;;6.80;55.70;;;;;;5054299;28;20000;-64
2021/11/26 00:58:12;;;;;;;;;;;6.80;55.70;;;;;;5073709;28;20369;-65
2021/11/26 01:00:38;;;;;;;;;;;6.80;55.60;;;;;;5073270;28;19912;-64
2021/11/26 01:03:05;;;;;;;;;;;6.80;55.60;;;;;;5073629;28;20018;-64
2021/11/26 01:05:30;;;;;;;;;;;6.70;55.50;;;;;;5073690;28;19950;-64
2021/11/26 01:07:56;;;;;;;;;;;6.70;55.60;;;;;;5073600;28;19948;-64
2021/11/26 01:10:22;;;;;;;;;;;6.70;55.60;;;;;;5056148;28;19909;-64
2021/11/26 01:12:48;;;;;;;;;;;6.70;55.70;;;;;;5074328;28;19909;-64
2021/11/26 01:15:16;;;;;;;;;;;6.70;55.80;;;;;;5072510;28;20298;-65
2021/11/26 01:17:42;;;;;;;;;;;6.70;55.80;;;;;;5062310;28;19923;-64
2021/11/26 01:20:09;;;;;;;;;;;6.70;55.80;;;;;;5037036;28;19909;-64
2021/11/26 01:22:35;;;;;;;;;;;6.70;55.80;;;;;;5055059;28;20022;-64
2021/11/26 01:25:00;;;;;;;;;;;6.70;55.80;;;;;;5055155;28;19991;-65
2021/11/26 01:27:26;;;;;;;;;;;6.80;55.80;;;;;;5069763;28;19912;-65
2021/11/26 01:29:52;;;;;;;;;;;6.80;55.80;;;;;;5074569;28;19913;-64
2021/11/26 01:32:17;;;;;;;;;;;6.80;55.80;;;;;;5073595;28;20450;-64
2021/11/26 01:34:43;;;;;;;;;;;6.80;55.80;;;;;;5073668;28;19915;-64
2021/11/26 01:37:08;;;;;;;;;;;6.80;55.70;;;;;;5071759;28;19912;-65
2021/11/26 01:39:34;;;;;;;;;;;6.80;55.70;;;;;;5073489;28;20380;-64
2021/11/26 01:42:00;;;;;;;;;;;6.80;55.70;;;;;;5073539;28;19935;-64
2021/11/26 01:44:25;;;;;;;;;;;6.80;55.70;;;;;;5073131;28;19958;-64
2021/11/26 01:46:51;;;;;;;;;;;6.80;55.70;;;;;;5067081;28;19912;-64
2021/11/26 01:49:17;;;;;;;;;;;6.80;55.70;;;;;;5073356;28;20381;-64
2021/11/26 01:51:43;;;;;;;;;;;6.80;55.70;;;;;;5054065;28;20020;-65
2021/11/26 01:54:08;;;;;;;;;;;6.80;55.70;;;;;;5036258;28;19909;-64
2021/11/26 01:56:34;;;;;;;;;;;6.80;55.70;;;;;;5061545;28;19920;-65
2021/11/26 01:59:00;;;;;;;;;;;6.80;55.60;;;;;;5053813;28;19916;-64
2021/11/26 02:01:26;;;;;;;;;;;6.80;55.60;;;;;;5053961;28;19909;-64
2021/11/26 02:03:52;;;;;;;;;;;6.80;55.60;;;;;;5053793;28;19909;-64
2021/11/26 02:06:17;;;;;;;;;;;6.80;55.60;;;;;;5056870;28;19913;-64
2021/11/26 02:08:43;;;;;;;;;;;6.80;55.70;;;;;;5055069;28;19916;-65
2021/11/26 02:11:09;;;;;;;;;;;6.80;55.70;;;;;;5053727;28;19909;-64
2021/11/26 02:13:34;;;;;;;;;;;6.80;55.70;;;;;;5069789;28;20381;-64
2021/11/26 02:16:02;;;;;;;;;;;6.80;55.70;;;;;;5054401;28;19924;-64
2021/11/26 02:18:27;;;;;;;;;;;6.80;55.70;;;;;;5072832;28;19913;-65
2021/11/26 02:20:53;;;;;;;;;;;6.80;55.70;;;;;;5072253;28;19974;-65
2021/11/26 02:23:19;;;;;;;;;;;6.80;55.80;;;;;;5072533;28;19967;-64
2021/11/26 02:25:45;;;;;;;;;;;6.80;55.80;;;;;;5071423;28;19974;-64
2021/11/26 02:28:12;;;;;;;;;;;6.80;55.90;;;;;;5072585;28;19966;-63
2021/11/26 02:30:37;;;;;;;;;;;6.80;55.90;;;;;;5072178;28;19909;-63
2021/11/26 02:33:11;;;;;;;;;;;6.80;55.80;;;;;;5072499;28;19930;-65
2021/11/26 02:35:37;;;;;;;;;;;6.80;55.90;;;;;;5072412;28;19908;-65
2021/11/26 02:38:03;;;;;;;;;;;6.80;55.90;;;;;;5063312;28;19905;-65
2021/11/26 02:40:30;;;;;;;;;;;6.80;55.80;;;;;;5053364;28;20255;-65
2021/11/26 02:42:55;;;;;;;;;;;6.80;55.80;;;;;;5053294;28;19966;-65
2021/11/26 02:45:22;;;;;;;;;;;6.80;55.80;;;;;;5068610;28;19908;-65
2021/11/26 02:47:48;;;;;;;;;;;6.70;55.80;;;;;;5068914;28;19991;-66
2021/11/26 02:50:14;;;;;;;;;;;6.80;55.80;;;;;;5053283;28;19916;-65
2021/11/26 02:52:40;;;;;;;;;;;6.80;55.80;;;;;;5053201;28;19958;-65
2021/11/26 02:55:07;;;;;;;;;;;6.80;55.80;;;;;;5053182;28;19919;-65
2021/11/26 02:57:32;;;;;;;;;;;6.80;55.80;;;;;;5062016;28;19920;-66
2021/11/26 02:59:58;;;;;;;;;;;6.80;55.80;;;;;;5052779;28;20023;-65
2021/11/26 03:02:24;;;;;;;;;;;6.80;55.80;;;;;;5053136;28;19912;-65
2021/11/26 03:04:49;;;;;;;;;;;6.80;55.90;;;;;;5053003;28;20259;-65
2021/11/26 03:07:15;;;;;;;;;;;6.80;55.90;;;;;;5057530;28;19913;-65
2021/11/26 03:09:40;;;;;;;;;;;6.80;55.90;;;;;;5052860;28;19936;-65
2021/11/26 03:12:07;;;;;;;;;;;6.80;55.90;;;;;;5035007;28;20412;-65
2021/11/26 03:14:33;;;;;;;;;;;6.80;55.90;;;;;;5060731;28;19956;-65
2021/11/26 03:16:59;;;;;;;;;;;6.90;56.00;;;;;;5074874;28;20396;-66
2021/11/26 03:19:25;;;;;;;;;;;6.90;55.90;;;;;;5035008;28;20007;-65
2021/11/26 03:21:50;;;;;;;;;;;6.90;55.90;;;;;;5052813;28;19909;-65
2021/11/26 03:24:16;;;;;;;;;;;6.90;55.80;;;;;;5052859;28;19920;-65
2021/11/26 03:26:42;;;;;;;;;;;6.90;55.80;;;;;;5060493;28;19943;-66
2021/11/26 03:29:08;;;;;;;;;;;6.90;55.70;;;;;;5059413;28;20007;-66
2021/11/26 03:31:33;;;;;;;;;;;6.90;55.70;;;;;;5071909;28;19965;-66
2021/11/26 03:33:59;;;;;;;;;;;6.90;55.70;;;;;;5074625;28;20362;-65
2021/11/26 03:36:25;;;;;;;;;;;6.90;55.60;;;;;;5081260;28;19912;-65
2021/11/26 03:38:50;;;;;;;;;;;6.90;55.60;;;;;;5056733;28;19987;-65
2021/11/26 03:41:16;;;;;;;;;;;6.90;55.60;;;;;;5056700;28;19909;-65
2021/11/26 03:43:42;;;;;;;;;;;6.90;55.70;;;;;;5060246;28;19916;-65
2021/11/26 03:46:07;;;;;;;;;;;6.90;55.70;;;;;;5075600;28;20358;-65
2021/11/26 03:48:33;;;;;;;;;;;6.90;55.60;;;;;;5075675;28;19975;-66
2021/11/26 03:50:58;;;;;;;;;;;6.90;55.60;;;;;;5075438;28;19912;-65
2021/11/26 03:53:24;;;;;;;;;;;6.90;55.60;;;;;;5056629;28;20000;-65
2021/11/26 03:55:50;;;;;;;;;;;6.90;55.70;;;;;;5068451;28;19920;-66
2021/11/26 03:58:16;;;;;;;;;;;6.90;55.70;;;;;;5056418;28;20270;-65
2021/11/26 04:00:41;;;;;;;;;;;6.90;55.60;;;;;;5055944;28;19916;-65
2021/11/26 04:03:07;;;;;;;;;;;6.90;55.60;;;;;;5056239;28;19909;-65
2021/11/26 04:05:33;;;;;;;;;;;6.90;55.60;;;;;;5063938;28;19952;-65
2021/11/26 04:07:59;;;;;;;;;;;6.90;55.60;;;;;;5055979;28;19995;-66
2021/11/26 04:10:25;;;;;;;;;;;6.90;55.50;;;;;;5056129;28;19909;-65
2021/11/26 04:12:51;;;;;;;;;;;6.80;55.50;;;;;;5056043;28;19909;-65
2021/11/26 04:15:18;;;;;;;;;;;6.80;55.60;;;;;;5065868;28;19925;-65
2021/11/26 04:17:45;;;;;;;;;;;6.80;55.50;;;;;;5055924;28;19909;-65
2021/11/26 04:20:12;;;;;;;;;;;6.80;55.60;;;;;;5055873;28;19909;-65
2021/11/26 04:22:38;;;;;;;;;;;6.80;55.60;;;;;;5055948;28;19909;-66
2021/11/26 04:25:04;;;;;;;;;;;6.80;55.70;;;;;;5061226;28;19920;-65
2021/11/26 04:27:30;;;;;;;;;;;6.80;55.70;;;;;;5060913;28;19948;-65
2021/11/26 04:29:55;;;;;;;;;;;6.80;55.70;;;;;;5074470;28;19960;-65
2021/11/26 04:32:21;;;;;;;;;;;6.80;55.80;;;;;;5074883;28;19909;-65
2021/11/26 04:34:47;;;;;;;;;;;6.80;55.80;;;;;;5068291;28;20311;-66
2021/11/26 04:37:12;;;;;;;;;;;6.80;55.80;;;;;;5055616;28;20126;-65
2021/11/26 04:39:38;;;;;;;;;;;6.80;55.80;;;;;;5055600;28;20366;-65
2021/11/26 04:42:04;;;;;;;;;;;6.80;55.80;;;;;;5055464;28;20399;-65
2021/11/26 04:44:29;;;;;;;;;;;6.80;55.80;;;;;;5066508;28;19913;-65
2021/11/26 04:46:55;;;;;;;;;;;6.80;55.80;;;;;;5074588;28;19934;-65
2021/11/26 04:49:20;;;;;;;;;;;6.80;55.80;;;;;;5074509;28;19912;-66
2021/11/26 04:51:46;;;;;;;;;;;6.80;55.80;;;;;;5074379;28;19916;-65
2021/11/26 04:54:12;;;;;;;;;;;6.80;55.70;;;;;;5069920;28;20341;-65
2021/11/26 04:56:37;;;;;;;;;;;6.80;55.70;;;;;;5055104;28;19908;-65
2021/11/26 04:59:03;;;;;;;;;;;6.80;55.70;;;;;;5054832;28;19916;-65
2021/11/26 05:01:28;;;;;;;;;;;6.80;55.70;;;;;;5037087;28;19908;-65
2021/11/26 05:03:54;;;;;;;;;;;6.80;55.80;;;;;;5061503;28;19916;-65
2021/11/26 05:06:20;;;;;;;;;;;6.80;56.00;;;;;;5059738;28;19995;-65
2021/11/26 05:08:45;;;;;;;;;;;6.80;56.60;;;;;;5065308;28;19920;-65
2021/11/26 05:11:11;;;;;;;;;;;6.70;56.00;;;;;;5071304;28;20378;-65
2021/11/26 05:13:43;;;;;;;;;;;6.70;56.20;;;;;;5055548;28;20431;-65
2021/11/26 05:16:09;;;;;;;;;;;6.70;56.00;;;;;;5072933;28;19912;-65
2021/11/26 05:18:35;;;;;;;;;;;6.70;56.10;;;;;;5054536;28;19948;-65
2021/11/26 05:21:01;;;;;;;;;;;6.70;56.10;;;;;;5067292;28;20480;-65
2021/11/26 05:23:26;;;;;;;;;;;6.70;56.10;;;;;;5073531;28;19915;-65
2021/11/26 05:25:52;;;;;;;;;;;6.70;56.10;;;;;;5073604;28;19940;-64
2021/11/26 05:28:17;;;;;;;;;;;6.70;56.10;;;;;;5073525;28;19912;-64
2021/11/26 05:30:43;;;;;;;;;;;6.70;56.10;;;;;;5054287;28;19908;-64
2021/11/26 05:33:09;;;;;;;;;;;6.60;56.00;;;;;;5053243;28;20007;-64
2021/11/26 05:35:34;;;;;;;;;;;6.70;56.10;;;;;;5054164;28;19951;-65
2021/11/26 05:38:00;;;;;;;;;;;6.70;56.10;;;;;;5054284;28;20362;-64
2021/11/26 05:40:26;;;;;;;;;;;6.70;56.10;;;;;;5055241;28;19931;-64
2021/11/26 05:42:51;;;;;;;;;;;6.70;56.10;;;;;;5055614;28;19909;-65
2021/11/26 05:45:18;;;;;;;;;;;6.70;56.00;;;;;;5054124;28;19913;-64
2021/11/26 05:47:43;;;;;;;;;;;6.70;56.10;;;;;;5054194;28;19909;-65
2021/11/26 05:50:11;;;;;;;;;;;6.70;56.10;;;;;;5058709;28;19912;-64
2021/11/26 05:52:37;;;;;;;;;;;6.70;56.10;;;;;;5073030;28;19909;-64
2021/11/26 05:55:04;;;;;;;;;;;6.70;56.10;;;;;;5055484;28;19913;-65
2021/11/26 05:57:30;;;;;;;;;;;6.70;56.10;;;;;;5053594;28;19958;-65
2021/11/26 05:59:55;;;;;;;;;;;6.70;56.10;;;;;;5053896;28;20309;-64
2021/11/26 06:02:21;;;;;;;;;;;6.70;56.00;;;;;;5053901;28;19909;-64
2021/11/26 06:04:47;;;;;;;;;;;6.70;56.00;;;;;;5053958;28;20481;-64
2021/11/26 06:07:12;;;;;;;;;;;6.70;56.00;;;;;;5060228;28;20408;-65
2021/11/26 06:09:38;;;;;;;;;;;6.60;56.00;;;;;;5053526;28;19920;-64
2021/11/26 06:12:05;;;;;;;;;;;6.60;56.00;;;;;;5053548;28;20374;-64
2021/11/26 06:14:30;;;;;;;;;;;6.60;56.10;;;;;;5059109;28;19959;-64
2021/11/26 06:16:56;;;;;;;;;;;6.60;56.10;;;;;;5054305;28;20016;-64
2021/11/26 06:19:21;;;;;;;;;;;6.60;56.10;;;;;;5066562;28;20306;-65
2021/11/26 06:21:47;;;;;;;;;;;6.60;56.10;;;;;;5053486;28;19909;-65
2021/11/26 06:24:12;;;;;;;;;;;6.60;56.10;;;;;;5055098;28;19967;-65
2021/11/26 06:26:39;;;;;;;;;;;6.70;56.20;;;;;;5072732;28;19913;-65
2021/11/26 06:29:05;;;;;;;;;;;6.70;56.20;;;;;;5072531;28;19919;-65
2021/11/26 06:31:31;;;;;;;;;;;6.60;56.10;;;;;;5068019;28;20346;-67
2021/11/26 06:33:57;;;;;;;;;;;6.70;56.20;;;;;;5056187;28;19909;-65
2021/11/26 06:36:22;;;;;;;;;;;6.70;56.20;;;;;;5054935;28;19913;-65
2021/11/26 06:38:49;;;;;;;;;;;6.70;56.20;;;;;;5053365;28;19924;-66
2021/11/26 06:41:15;;;;;;;;;;;6.70;56.20;;;;;;5057893;28;20027;-66
2021/11/26 06:43:41;;;;;;;;;;;6.70;56.20;;;;;;5057632;28;19944;-65
2021/11/26 06:46:07;;;;;;;;;;;6.70;56.10;;;;;;5070090;28;19959;-65
2021/11/26 06:48:33;;;;;;;;;;;6.80;56.20;;;;;;5072271;28;19919;-65
2021/11/26 06:50:58;;;;;;;;;;;6.80;56.20;;;;;;5072184;28;19909;-65
2021/11/26 06:53:24;;;;;;;;;;;6.80;56.20;;;;;;5073838;28;19909;-65
2021/11/26 06:55:50;;;;;;;;;;;6.80;56.20;;;;;;5059701;28;20011;-65
2021/11/26 06:58:15;;;;;;;;;;;6.80;56.30;;;;;;5035236;28;19913;-66
2021/11/26 07:00:41;;;;;;;;;;;6.90;56.30;;;;;;5052747;28;19950;-65
2021/11/26 07:03:07;;;;;;;;;;;6.90;56.30;;;;;;5052864;28;20472;-66
2021/11/26 07:05:32;;;;;;;;;;;6.90;56.30;;;;;;5056908;28;19928;-65
2021/11/26 07:07:58;;;;;;;;;;;6.90;56.30;;;;;;5069186;28;19980;-65
2021/11/26 07:10:24;;;;;;;;;;;6.90;56.20;;;;;;5052863;28;20426;-65
2021/11/26 07:12:49;;;;;;;;;;;6.90;56.10;;;;;;5052815;28;20278;-65
2021/11/26 07:15:16;;;;;;;;;;;7.00;56.20;;;;;;5052905;28;20283;-65
2021/11/26 07:17:42;;;;;;;;;;;7.00;56.10;;;;;;5036828;28;19944;-65
2021/11/26 07:20:08;;;;;;;;;;;7.00;56.10;;;;;;5057952;28;19944;-65
2021/11/26 07:22:33;;;;;;;;;;;7.00;56.10;;;;;;5052997;28;19909;-65
2021/11/26 07:24:59;;;;;;;;;;;7.10;56.10;;;;;;5071494;28;19958;-65
2021/11/26 07:27:25;;;;;;;;;;;7.10;56.20;;;;;;5072510;28;20330;-65
2021/11/26 07:29:51;;;;;;;;;;;7.10;56.10;;;;;;5072880;28;19912;-65
2021/11/26 07:32:21;;;;;;;;;;;7.10;56.10;;;;;;5059359;28;19956;-66
2021/11/26 07:34:46;;;;;;;;;;;7.10;56.10;;;;;;5052789;28;19909;-65
2021/11/26 07:37:12;;;;;;;;;;;7.10;56.10;;;;;;5052736;28;19909;-65
2021/11/26 07:39:38;;;;;;;;;;;7.10;56.20;;;;;;5052714;28;19917;-65
2021/11/26 07:42:05;;;;;;;;;;;7.20;56.20;;;;;;5055941;28;19909;-65
2021/11/26 07:44:31;;;;;;;;;;;7.20;56.20;;;;;;5065584;28;19912;-66
2021/11/26 07:46:57;;;;;;;;;;;7.20;56.20;;;;;;5071802;28;19909;-65
2021/11/26 07:49:24;;;;;;;;;;;7.30;56.20;;;;;;5071729;28;20408;-66
2021/11/26 07:51:50;;;;;;;;;;;7.30;56.20;;;;;;5062893;28;19916;-65
2021/11/26 07:54:16;;;;;;;;;;;7.30;56.20;;;;;;5053278;28;19913;-65
2021/11/26 07:56:42;;;;;;;;;;;7.40;56.20;;;;;;5061846;28;20305;-65
2021/11/26 07:59:08;;;;;;;;;;;7.40;56.10;;;;;;5055283;28;19927;-65
2021/11/26 08:01:33;;;;;;;;;;;7.50;56.10;;;;;;5055945;28;19912;-66
2021/11/26 08:03:59;;;;;;;;;;;7.50;56.00;;;;;;5060523;28;19909;-65
2021/11/26 08:06:24;;;;;;;;;;;7.50;55.90;;;;;;5052512;28;20007;-66
2021/11/26 08:08:50;;;;;;;;;;;7.60;55.90;;;;;;5034555;28;19912;-65
2021/11/26 08:11:16;;;;;;;;;;;7.60;55.90;;;;;;5052601;28;19909;-66
2021/11/26 08:13:41;;;;;;;;;;;7.60;55.90;;;;;;5068018;28;19917;-65
2021/11/26 08:16:08;;;;;;;;;;;7.60;55.80;;;;;;5052856;28;20332;-66
2021/11/26 08:18:34;;;;;;;;;;;7.60;55.80;;;;;;5052821;28;19936;-66
2021/11/26 08:21:00;;;;;;;;;;;7.60;55.70;;;;;;5056154;28;19943;-66
2021/11/26 08:23:26;;;;;;;;;;;7.50;55.60;;;;;;5075866;28;20323;-66
2021/11/26 08:25:52;;;;;;;;;;;7.50;55.50;;;;;;5061092;28;19909;-65
2021/11/26 08:28:18;;;;;;;;;;;7.50;55.50;;;;;;5055722;28;20318;-65
2021/11/26 08:30:43;;;;;;;;;;;7.50;55.40;;;;;;5058023;28;19960;-66
2021/11/26 08:33:10;;;;;;;;;;;7.60;55.50;;;;;;5055652;28;19955;-65
2021/11/26 08:35:36;;;;;;;;;;;7.60;55.60;;;;;;5055780;28;20370;-66
2021/11/26 08:38:01;;;;;;;;;;;7.60;55.60;;;;;;5055612;28;19946;-66
2021/11/26 08:40:27;;;;;;;;;;;7.60;55.60;;;;;;5067958;28;19912;-66
2021/11/26 08:42:53;;;;;;;;;;;7.70;55.60;;;;;;5055687;28;19963;-66
2021/11/26 08:45:19;;;;;;;;;;;7.70;55.70;;;;;;5048904;28;20323;-65
2021/11/26 08:47:45;;;;;;;;;;;7.80;55.70;;;;;;5074589;28;19915;-66
2021/11/26 08:50:14;;;;;;;;;;;7.70;55.60;;;;;;5074580;28;19913;-65
2021/11/26 08:52:41;;;;;;;;;;;7.80;55.50;;;;;;5078312;28;19916;-66
2021/11/26 08:55:11;;;;;;;;;;;7.80;55.50;;;;;;5055438;28;20338;-66
2021/11/26 08:57:37;;;;;;;;;;;7.90;55.50;;;;;;5055259;28;19909;-66
2021/11/26 09:00:03;;;;;;;;;;;7.90;55.40;;;;;;5054896;28;19944;-66
2021/11/26 09:02:29;;;;;;;;;;;7.90;55.40;;;;;;5055220;28;19968;-65
2021/11/26 09:04:54;;;;;;;;;;;7.90;55.30;;;;;;5066402;28;19929;-66
2021/11/26 09:07:20;;;;;;;;;;;8.00;55.40;;;;;;5055212;28;20354;-66
2021/11/26 09:09:46;;;;;;;;;;;8.00;55.90;;;;;;5055117;28;19913;-65
2021/11/26 09:12:11;;;;;;;;;;;8.00;55.30;;;;;;5055162;28;19913;-66
2021/11/26 09:14:38;;;;;;;;;;;8.00;55.20;;;;;;5060829;28;19921;-65
2021/11/26 09:17:04;;;;;;;;;;;8.00;55.10;;;;;;5052363;28;20274;-66
2021/11/26 09:19:30;;;;;;;;;;;8.00;55.10;;;;;;5055593;28;19962;-66
2021/11/26 09:21:55;;;;;;;;;;;8.00;55.10;;;;;;5071672;28;20326;-66
2021/11/26 09:24:21;;;;;;;;;;;8.00;55.00;;;;;;5074200;28;19931;-66
2021/11/26 09:26:46;;;;;;;;;;;8.00;55.10;;;;;;5061780;28;19913;-65
2021/11/26 09:29:12;;;;;;;;;;;8.00;55.10;;;;;;5065526;28;20012;-66
2021/11/26 09:31:37;;;;;;;;;;;8.00;55.10;;;;;;5053231;28;20000;-66
2021/11/26 09:34:04;;;;;;;;;;;7.90;55.10;;;;;;5060433;28;19908;-66
2021/11/26 09:36:34;;;;;;;;;;;7.90;55.20;;;;;;5058341;28;20359;-65
2021/11/26 09:39:00;;;;;;;;;;;7.90;55.20;;;;;;5054371;28;19959;-66
2021/11/26 09:41:26;;;;;;;;;;;7.90;55.30;;;;;;5054370;28;19917;-66
2021/11/26 09:43:52;;;;;;;;;;;7.90;55.50;;;;;;5055118;28;19912;-66
2021/11/26 09:46:23;;;;;;;;;;;7.90;56.20;;;;;;5073878;28;19959;-65
2021/11/26 09:48:49;;;;;;;;;;;7.90;55.70;;;;;;5057745;28;19920;-66
2021/11/26 09:51:14;;;;;;;;;;;7.90;55.80;;;;;;5072955;28;20270;-65
2021/11/26 09:53:40;;;;;;;;;;;7.90;56.00;;;;;;5058647;28;19908;-66
2021/11/26 09:56:07;;;;;;;;;;;7.90;56.10;;;;;;5056240;28;20023;-66
2021/11/26 09:58:33;;;;;;;;;;;7.90;56.10;;;;;;5054113;28;19991;-66
2021/11/26 10:01:01;;;;;;;;;;;7.90;56.20;;;;;;5053794;28;19908;-66
2021/11/26 10:03:40;;;;;;;;;;;7.90;56.30;;;;;;5062057;28;19913;-66
2021/11/26 10:06:23;;;;;;;;;;;8.00;56.30;;;;;;5063750;28;19912;-65
2021/11/26 10:08:55;;;;;;;;;;;8.00;56.30;;;;;;5060534;28;19916;-65
2021/11/26 10:11:25;;;;;;;;;;;8.00;56.50;;;;;;5055715;28;19919;-66
2021/11/26 10:13:51;;;;;;;;;;;8.00;56.60;;;;;;5059543;28;19964;-65
2021/11/26 10:16:17;;;;;;;;;;;8.00;56.60;;;;;;5061474;28;19978;-65
2021/11/26 10:18:47;;;;;;;;;;;8.00;56.60;;;;;;5063998;28;20325;-65
2021/11/26 10:21:13;;;;;;;;;;;8.00;56.60;;;;;;5062563;28;19913;-64
2021/11/26 10:23:40;;;;;;;;;;;8.00;56.40;;;;;;5040547;28;20392;-65
2021/11/26 10:26:13;;;;;;;;;;;8.00;56.40;;;;;;5045262;28;19958;-65
2021/11/26 10:28:39;;;;;;;;;;;7.90;56.40;;;;;;5059157;28;19916;-65
2021/11/26 10:31:05;;;;;;;;;;;7.90;56.50;;;;;;5057782;28;19917;-65
2021/11/26 10:33:32;;;;;;;;;;;7.90;56.40;;;;;;5059670;28;19912;-64
2021/11/26 10:36:00;;;;;;;;;;;7.80;56.40;;;;;;5058965;28;20346;-65
2021/11/26 10:38:28;;;;;;;;;;;7.80;56.60;;;;;;5067165;28;19920;-64
2021/11/26 10:40:58;;;;;;;;;;;7.80;56.70;;;;;;5068662;28;20014;-64
2021/11/26 10:43:31;;;;;;;;;;;7.80;56.80;;;;;;5058102;28;19943;-66
2021/11/26 10:59:09;;;;;;;;;;;7.80;57.50;;;;;;5068080;28;19913;-66
2021/11/26 11:01:43;;;;;;;;;;;7.90;57.70;;;;;;5068807;28;19913;-67
2021/11/26 11:04:12;;;;;;;;;;;7.90;57.70;;;;;;5072249;28;19912;-67
2021/11/26 11:06:38;;;;;;;;;;;8.00;57.50;;;;;;5072031;28;20293;-67
2021/11/26 11:09:06;;;;;;;;;;;8.00;57.40;;;;;;5072110;28;20006;-67
2021/11/26 11:11:32;;;;;;;;;;;8.00;57.40;;;;;;5072353;28;19908;-67
2021/11/26 11:14:01;;;;;;;;;;;8.10;57.30;;;;;;5072040;28;19921;-68
2021/11/26 11:16:27;;;;;;;;;;;8.00;57.30;;;;;;5071737;28;19919;-68
2021/11/26 11:18:53;;;;;;;;;;;8.10;57.40;;;;;;5071986;28;19995;-67
2021/11/26 11:21:20;;;;;;;;;;;8.10;57.40;;;;;;5072113;28;20071;-67
2021/11/26 11:23:49;;;;;;;;;;;8.20;57.30;;;;;;5072162;28;20370;-66
2021/11/26 11:26:15;;;;;;;;;;;8.20;57.10;;;;;;5071901;28;20011;-67
2021/11/26 11:28:40;;;;;;;;;;;8.20;57.00;;;;;;5071616;28;20003;-67
2021/11/26 11:31:06;;;;;;;;;;;8.20;56.80;;;;;;5071494;28;20003;-66
2021/11/26 11:33:32;;;;;;;;;;;8.20;56.90;;;;;;5071532;28;19905;-66
2021/11/26 11:35:59;;;;;;;;;;;8.20;56.90;;;;;;5071767;28;19916;-66
2021/11/26 11:38:25;;;;;;;;;;;8.20;56.90;;;;;;5063532;28;19939;-66
2021/11/26 11:41:00;;;;;;;;;;;8.30;57.00;;;;;;5052748;28;20277;-66
2021/11/26 11:43:26;;;;;;;;;;;8.30;57.00;;;;;;5052768;28;19913;-67
2021/11/26 11:45:59;;;;;;;;;;;8.30;56.90;;;;;;5066559;28;19987;-66
2021/11/26 11:48:29;;;;;;;;;;;8.40;56.90;;;;;;5071695;28;19931;-66
2021/11/26 11:50:55;;;;;;;;;;;8.40;56.90;;;;;;5071943;28;20009;-66
2021/11/26 11:53:28;;;;;;;;;;;8.50;56.90;;;;;;5071801;28;19914;-66
2021/11/26 11:56:01;;;;;;;;;;;8.50;56.80;;;;;;5075580;28;19915;-67
2021/11/26 11:58:37;;;;;;;;;;;8.60;56.80;;;;;;5057889;28;20273;-66
2021/11/26 12:01:02;;;;;;;;;;;8.60;56.60;;;;;;5075203;28;20384;-66
2021/11/26 12:03:28;;;;;;;;;;;8.60;56.40;;;;;;5075284;28;19908;-66
2021/11/26 12:06:12;;;;;;;;;;;8.60;56.40;;;;;;5075271;28;19958;-67
2021/11/26 12:08:55;;;;;;;;;;;8.60;56.30;;;;;;5075400;28;19917;-66
2021/11/26 12:11:26;;;;;;;;;;;8.60;56.20;;;;;;5075246;28;19944;-66
2021/11/26 12:14:02;;;;;;;;;;;8.60;56.30;;;;;;5075124;28;19905;-66
2021/11/26 12:16:28;;;;;;;;;;;8.60;56.20;;;;;;5073092;28;20018;-66
2021/11/26 12:18:55;;;;;;;;;;;8.60;56.20;;;;;;5057170;28;19915;-66
2021/11/26 12:21:28;;;;;;;;;;;8.60;56.30;;;;;;5074746;28;20213;-66
2021/11/26 12:24:07;;;;;;;;;;;8.60;56.10;;;;;;5038064;28;20346;-66
2021/11/26 12:26:52;;;;;;;;;;;8.50;55.90;;;;;;5056042;28;19912;-65
2021/11/26 12:29:20;;;;;;;;;;;8.40;56.00;;;;;;5055841;28;19913;-66
2021/11/26 12:31:47;;;;;;;;;;;8.40;56.20;;;;;;5055555;28;20039;-66
2021/11/26 12:34:18;;;;;;;;;;;8.30;56.30;;;;;;5055644;28;19908;-66
2021/11/26 12:36:46;;;;;;;;;;;8.30;56.40;;;;;;5055652;28;19909;-66
2021/11/26 12:39:14;;;;;;;;;;;8.20;56.40;;;;;;5055571;28;19919;-66
2021/11/26 12:41:41;;;;;;;;;;;8.20;56.60;;;;;;5055629;28;19975;-66
2021/11/26 12:44:08;;;;;;;;;;;8.20;56.70;;;;;;5055563;28;20003;-66
2021/11/26 12:46:37;;;;;;;;;;;8.10;56.80;;;;;;5073192;28;19974;-66
2021/11/26 12:51:51;;;;;;;;;;;8.10;56.90;;;;;;5043340;28;20019;-65
2021/11/26 12:54:35;;;;;;;;;;;8.10;56.90;;;;;;5074624;28;20249;-66
2021/11/26 12:57:15;;;;;;;;;;;8.00;56.80;;;;;;5074556;28;19908;-65
2021/11/26 12:59:45;;;;;;;;;;;8.00;56.80;;;;;;5074749;28;19951;-66
2021/11/26 13:02:17;;;;;;;;;;;8.00;56.90;;;;;;5074326;28;19908;-66
2021/11/26 13:04:50;;;;;;;;;;;8.00;56.90;;;;;;5056234;28;20358;-67
2021/11/26 13:07:26;;;;;;;;;;;7.90;57.00;;;;;;5057157;28;20285;-67
2021/11/26 13:09:56;;;;;;;;;;;7.90;57.10;;;;;;5055053;28;19912;-67
2021/11/26 13:12:23;;;;;;;;;;;7.80;57.00;;;;;;5054914;28;20317;-67
2021/11/26 13:14:50;;;;;;;;;;;7.80;57.20;;;;;;5059397;28;19947;-67
2021/11/26 13:17:17;;;;;;;;;;;7.80;57.30;;;;;;5073927;28;19943;-67
2021/11/26 13:19:43;;;;;;;;;;;7.80;57.40;;;;;;5073953;28;20350;-67
2021/11/26 13:22:09;;;;;;;;;;;7.70;57.40;;;;;;5074048;28;19991;-67
2021/11/26 13:24:37;;;;;;;;;;;7.70;57.50;;;;;;5073989;28;19944;-68
2021/11/26 13:27:02;;;;;;;;;;;7.70;57.50;;;;;;5073780;28;19909;-67
2021/11/26 13:29:30;;;;;;;;;;;7.60;57.50;;;;;;5073641;28;19938;-67
2021/11/26 13:31:56;;;;;;;;;;;7.60;57.50;;;;;;5073647;28;19912;-68
2021/11/26 13:34:22;;;;;;;;;;;7.60;57.60;;;;;;5073700;28;19909;-67
2021/11/26 13:36:48;;;;;;;;;;;7.60;57.60;;;;;;5073714;28;19915;-67
2021/11/26 13:39:17;;;;;;;;;;;7.60;57.70;;;;;;5073630;28;19997;-68
2021/11/26 13:41:43;;;;;;;;;;;7.50;57.70;;;;;;5073745;28;19915;-67
2021/11/26 13:44:09;;;;;;;;;;;7.50;57.80;;;;;;5073640;28;19916;-67
2021/11/26 13:46:35;;;;;;;;;;;7.50;57.90;;;;;;5061763;28;19909;-68
2021/11/26 13:49:05;;;;;;;;;;;7.40;57.80;;;;;;5067000;28;19913;-67
2021/11/26 13:51:36;;;;;;;;;;;7.40;57.80;;;;;;5054453;28;19920;-68
2021/11/26 13:54:06;;;;;;;;;;;7.40;57.90;;;;;;5058194;28;19917;-68
2021/11/26 13:56:34;;;;;;;;;;;7.40;57.90;;;;;;5076114;28;19920;-68
2021/11/26 13:59:02;;;;;;;;;;;7.30;58.00;;;;;;5058973;28;19960;-67
2021/11/26 14:01:29;;;;;;;;;;;7.30;58.10;;;;;;5072909;28;19915;-68
2021/11/26 14:03:59;;;;;;;;;;;7.30;58.10;;;;;;5059048;28;20465;-70
2021/11/26 14:06:25;;;;;;;;;;;7.30;58.30;;;;;;5054025;28;19909;-67
2021/11/26 14:08:55;;;;;;;;;;;7.30;58.50;;;;;;5053994;28;20357;-68
2021/11/26 14:11:37;;;;;;;;;;;7.30;58.50;;;;;;5053830;28;19936;-68
2021/11/26 14:14:05;;;;;;;;;;;7.20;58.50;;;;;;5067994;28;19983;-68
2021/11/26 14:16:31;;;;;;;;;;;7.30;58.60;;;;;;5060171;28;19960;-69
2021/11/26 14:18:58;;;;;;;;;;;7.20;58.50;;;;;;5060802;28;19963;-69
2021/11/26 14:21:27;;;;;;;;;;;7.20;58.60;;;;;;5055672;28;19909;-69
2021/11/26 14:23:54;;;;;;;;;;;7.20;58.70;;;;;;5060016;28;19959;-69
2021/11/26 14:26:20;;;;;;;;;;;7.20;58.70;;;;;;5058773;28;19909;-69
2021/11/26 14:28:47;;;;;;;;;;;7.10;58.70;;;;;;5069614;28;19916;-69
2021/11/26 14:31:12;;;;;;;;;;;7.10;58.80;;;;;;5058983;28;19959;-72
2021/11/26 14:33:38;;;;;;;;;;;7.10;58.90;;;;;;5035455;28;20324;-72
2021/11/26 14:36:12;;;;;;;;;;;7.00;58.90;;;;;;5053592;28;19913;-72
2021/11/26 14:38:45;;;;;;;;;;;7.00;58.90;;;;;;5054008;28;20344;-72
2021/11/26 14:41:14;;;;;;;;;;;7.00;58.90;;;;;;5042083;28;19960;-72
2021/11/26 14:43:39;;;;;;;;;;;7.00;59.00;;;;;;5061686;28;19920;-72
2021/11/26 14:46:07;;;;;;;;;;;7.00;59.00;;;;;;5061556;28;19909;-72